sensor_id;sensor_type;location;lat;lon;timestamp;temperature;humidity
20492;DHT22;10404;51.468;6.762;2023-11-18T00:00:19;3.10;79.60
20492;DHT22;10404;51.468;6.762;2023-11-18T00:02:45;3.10;79.60
20492;DHT22;10404;51.468;6.762;2023-11-18T00:05:11;3.10;79.60
20492;DHT22;10404;51.468;6.762;2023-11-18T00:07:40;3.10;79.60
20492;DHT22;10404;51.468;6.762;2023-11-18T00:10:06;3.10;79.60
20492;DHT22;10404;51.468;6.762;2023-11-18T00:12:32;3.10;79.60
20492;DHT22;10404;51.468;6.762;2023-11-18T00:15:04;3.10;79.50
20492;DHT22;10404;51.468;6.762;2023-11-18T00:17:31;3.10;79.50
20492;DHT22;10404;51.468;6.762;2023-11-18T00:19:58;3.10;79.60
20492;DHT22;10404;51.468;6.762;2023-11-18T00:22:24;3.10;79.50
20492;DHT22;10404;51.468;6.762;2023-11-18T00:24:50;3.10;79.50
20492;DHT22;10404;51.468;6.762;2023-11-18T00:27:16;3.10;79.50
20492;DHT22;10404;51.468;6.762;2023-11-18T00:29:42;3.10;79.50
20492;DHT22;10404;51.468;6.762;2023-11-18T00:32:09;3.10;79.50
20492;DHT22;10404;51.468;6.762;2023-11-18T00:34:34;3.10;79.50
20492;DHT22;10404;51.468;6.762;2023-11-18T00:37:00;3.00;79.40
20492;DHT22;10404;51.468;6.762;2023-11-18T00:39:27;3.00;79.40
20492;DHT22;10404;51.468;6.762;2023-11-18T00:41:53;3.00;79.40
20492;DHT22;10404;51.468;6.762;2023-11-18T00:44:18;3.00;79.50
20492;DHT22;10404;51.468;6.762;2023-11-18T00:46:44;3.00;79.40
20492;DHT22;10404;51.468;6.762;2023-11-18T00:49:10;3.00;79.40
20492;DHT22;10404;51.468;6.762;2023-11-18T00:51:37;2.90;79.50
20492;DHT22;10404;51.468;6.762;2023-11-18T00:54:03;2.90;79.50
20492;DHT22;10404;51.468;6.762;2023-11-18T00:56:31;2.90;79.50
20492;DHT22;10404;51.468;6.762;2023-11-18T00:58:57;2.90;79.40
20492;DHT22;10404;51.468;6.762;2023-11-18T01:01:23;2.90;79.50
20492;DHT22;10404;51.468;6.762;2023-11-18T01:03:48;2.90;79.50
20492;DHT22;10404;51.468;6.762;2023-11-18T01:06:14;2.90;79.40
20492;DHT22;10404;51.468;6.762;2023-11-18T01:08:46;2.90;79.40
20492;DHT22;10404;51.468;6.762;2023-11-18T01:11:18;2.90;79.50
20492;DHT22;10404;51.468;6.762;2023-11-18T01:13:51;2.90;79.50
20492;DHT22;10404;51.468;6.762;2023-11-18T01:16:17;2.90;79.50
20492;DHT22;10404;51.468;6.762;2023-11-18T01:18:43;2.90;79.50
20492;DHT22;10404;51.468;6.762;2023-11-18T01:21:09;2.90;79.50
20492;DHT22;10404;51.468;6.762;2023-11-18T01:23:38;2.90;79.50
20492;DHT22;10404;51.468;6.762;2023-11-18T01:26:07;2.90;79.50
20492;DHT22;10404;51.468;6.762;2023-11-18T01:28:36;2.90;79.40
20492;DHT22;10404;51.468;6.762;2023-11-18T01:31:04;2.90;79.40
20492;DHT22;10404;51.468;6.762;2023-11-18T01:33:30;2.90;79.50
20492;DHT22;10404;51.468;6.762;2023-11-18T01:35:58;2.90;79.40
20492;DHT22;10404;51.468;6.762;2023-11-18T01:38:24;2.90;79.50
20492;DHT22;10404;51.468;6.762;2023-11-18T01:40:51;2.90;79.50
20492;DHT22;10404;51.468;6.762;2023-11-18T01:43:18;2.90;79.50
20492;DHT22;10404;51.468;6.762;2023-11-18T01:45:45;2.80;79.50
20492;DHT22;10404;51.468;6.762;2023-11-18T01:48:11;2.80;79.50
20492;DHT22;10404;51.468;6.762;2023-11-18T01:50:40;2.80;79.50
20492;DHT22;10404;51.468;6.762;2023-11-18T01:53:07;2.80;79.50
20492;DHT22;10404;51.468;6.762;2023-11-18T01:55:33;2.80;79.50
20492;DHT22;10404;51.468;6.762;2023-11-18T01:58:00;2.80;79.50
20492;DHT22;10404;51.468;6.762;2023-11-18T02:00:37;2.80;79.50
20492;DHT22;10404;51.468;6.762;2023-11-18T02:03:06;2.80;79.50
20492;DHT22;10404;51.468;6.762;2023-11-18T02:05:32;2.80;79.50
20492;DHT22;10404;51.468;6.762;2023-11-18T02:07:59;2.80;79.50
20492;DHT22;10404;51.468;6.762;2023-11-18T02:10:27;2.80;79.50
20492;DHT22;10404;51.468;6.762;2023-11-18T02:13:06;2.70;79.50
20492;DHT22;10404;51.468;6.762;2023-11-18T02:15:36;2.70;79.50
20492;DHT22;10404;51.468;6.762;2023-11-18T02:18:06;2.70;79.50
20492;DHT22;10404;51.468;6.762;2023-11-18T02:20:35;2.70;79.50
20492;DHT22;10404;51.468;6.762;2023-11-18T02:23:01;2.70;79.60
20492;DHT22;10404;51.468;6.762;2023-11-18T02:25:27;2.70;79.60
20492;DHT22;10404;51.468;6.762;2023-11-18T02:27:55;2.70;79.60
20492;DHT22;10404;51.468;6.762;2023-11-18T02:30:21;2.70;79.40
20492;DHT22;10404;51.468;6.762;2023-11-18T02:35:25;2.70;79.50
20492;DHT22;10404;51.468;6.762;2023-11-18T02:37:54;2.70;79.50
20492;DHT22;10404;51.468;6.762;2023-11-18T02:42:52;2.70;79.50
20492;DHT22;10404;51.468;6.762;2023-11-18T02:45:19;2.70;79.50
20492;DHT22;10404;51.468;6.762;2023-11-18T02:47:46;2.70;79.50
20492;DHT22;10404;51.468;6.762;2023-11-18T02:50:12;2.70;79.50
20492;DHT22;10404;51.468;6.762;2023-11-18T02:52:41;2.70;79.50
20492;DHT22;10404;51.468;6.762;2023-11-18T02:55:08;2.70;79.60
20492;DHT22;10404;51.468;6.762;2023-11-18T02:57:37;2.70;79.50
20492;DHT22;10404;51.468;6.762;2023-11-18T03:00:05;2.70;79.60
20492;DHT22;10404;51.468;6.762;2023-11-18T03:02:31;2.70;79.50
20492;DHT22;10404;51.468;6.762;2023-11-18T03:04:57;2.60;79.60
20492;DHT22;10404;51.468;6.762;2023-11-18T03:07:23;2.70;79.70
20492;DHT22;10404;51.468;6.762;2023-11-18T03:09:48;2.70;79.60
20492;DHT22;10404;51.468;6.762;2023-11-18T03:12:17;2.70;79.60
20492;DHT22;10404;51.468;6.762;2023-11-18T03:14:42;2.70;79.60
20492;DHT22;10404;51.468;6.762;2023-11-18T03:17:08;2.70;79.60
20492;DHT22;10404;51.468;6.762;2023-11-18T03:19:35;2.70;79.60
20492;DHT22;10404;51.468;6.762;2023-11-18T03:22:02;2.70;79.70
20492;DHT22;10404;51.468;6.762;2023-11-18T03:24:28;2.70;79.60
20492;DHT22;10404;51.468;6.762;2023-11-18T03:26:57;2.70;79.70
20492;DHT22;10404;51.468;6.762;2023-11-18T03:29:23;2.70;79.60
20492;DHT22;10404;51.468;6.762;2023-11-18T03:31:49;2.70;79.70
20492;DHT22;10404;51.468;6.762;2023-11-18T03:34:18;2.70;79.80
20492;DHT22;10404;51.468;6.762;2023-11-18T03:36:47;2.70;79.80
20492;DHT22;10404;51.468;6.762;2023-11-18T03:39:13;2.70;79.80
20492;DHT22;10404;51.468;6.762;2023-11-18T03:41:40;2.70;79.90
20492;DHT22;10404;51.468;6.762;2023-11-18T03:44:05;2.70;79.90
20492;DHT22;10404;51.468;6.762;2023-11-18T03:46:31;2.70;79.80
20492;DHT22;10404;51.468;6.762;2023-11-18T03:49:00;2.70;80.00
20492;DHT22;10404;51.468;6.762;2023-11-18T03:51:26;2.70;80.00
20492;DHT22;10404;51.468;6.762;2023-11-18T03:53:52;2.70;80.00
20492;DHT22;10404;51.468;6.762;2023-11-18T03:56:17;2.70;80.00
20492;DHT22;10404;51.468;6.762;2023-11-18T03:58:46;2.70;80.00
20492;DHT22;10404;51.468;6.762;2023-11-18T04:01:21;2.70;80.00
20492;DHT22;10404;51.468;6.762;2023-11-18T04:03:48;2.70;80.10
20492;DHT22;10404;51.468;6.762;2023-11-18T04:06:23;2.70;80.00
20492;DHT22;10404;51.468;6.762;2023-11-18T04:08:50;2.70;80.10
20492;DHT22;10404;51.468;6.762;2023-11-18T04:11:16;2.70;80.10
20492;DHT22;10404;51.468;6.762;2023-11-18T04:13:42;2.70;80.10
20492;DHT22;10404;51.468;6.762;2023-11-18T04:16:14;2.70;80.20
20492;DHT22;10404;51.468;6.762;2023-11-18T04:18:45;2.70;80.20
20492;DHT22;10404;51.468;6.762;2023-11-18T04:21:11;2.70;80.20
20492;DHT22;10404;51.468;6.762;2023-11-18T04:23:39;2.70;80.20
20492;DHT22;10404;51.468;6.762;2023-11-18T04:26:06;2.70;80.20
20492;DHT22;10404;51.468;6.762;2023-11-18T04:28:36;2.70;80.30
20492;DHT22;10404;51.468;6.762;2023-11-18T04:31:02;2.70;80.30
20492;DHT22;10404;51.468;6.762;2023-11-18T04:33:28;2.70;80.40
20492;DHT22;10404;51.468;6.762;2023-11-18T04:36:06;2.70;80.40
20492;DHT22;10404;51.468;6.762;2023-11-18T04:38:35;2.70;80.50
20492;DHT22;10404;51.468;6.762;2023-11-18T04:41:02;2.70;80.50
20492;DHT22;10404;51.468;6.762;2023-11-18T04:43:31;2.70;80.60
20492;DHT22;10404;51.468;6.762;2023-11-18T04:45:57;2.70;80.60
20492;DHT22;10404;51.468;6.762;2023-11-18T04:48:23;2.70;80.60
20492;DHT22;10404;51.468;6.762;2023-11-18T04:50:48;2.70;80.70
20492;DHT22;10404;51.468;6.762;2023-11-18T04:53:14;2.70;80.70
20492;DHT22;10404;51.468;6.762;2023-11-18T04:55:40;2.70;80.70
20492;DHT22;10404;51.468;6.762;2023-11-18T04:58:05;2.70;80.70
20492;DHT22;10404;51.468;6.762;2023-11-18T05:00:36;2.70;80.70
20492;DHT22;10404;51.468;6.762;2023-11-18T05:03:04;2.70;80.80
20492;DHT22;10404;51.468;6.762;2023-11-18T05:05:30;2.70;80.70
20492;DHT22;10404;51.468;6.762;2023-11-18T05:07:56;2.70;80.80
20492;DHT22;10404;51.468;6.762;2023-11-18T05:10:21;2.70;80.70
20492;DHT22;10404;51.468;6.762;2023-11-18T05:12:47;2.70;80.70
20492;DHT22;10404;51.468;6.762;2023-11-18T05:15:24;2.70;80.70
20492;DHT22;10404;51.468;6.762;2023-11-18T05:17:54;2.70;80.80
20492;DHT22;10404;51.468;6.762;2023-11-18T05:20:20;2.70;80.70
20492;DHT22;10404;51.468;6.762;2023-11-18T05:22:46;2.70;80.80
20492;DHT22;10404;51.468;6.762;2023-11-18T05:25:12;2.70;80.80
20492;DHT22;10404;51.468;6.762;2023-11-18T05:27:39;2.70;80.70
20492;DHT22;10404;51.468;6.762;2023-11-18T05:30:09;2.70;80.70
20492;DHT22;10404;51.468;6.762;2023-11-18T05:32:34;2.70;80.80
20492;DHT22;10404;51.468;6.762;2023-11-18T05:35:00;2.70;80.80
20492;DHT22;10404;51.468;6.762;2023-11-18T05:37:26;2.70;81.00
20492;DHT22;10404;51.468;6.762;2023-11-18T05:39:54;2.70;80.90
20492;DHT22;10404;51.468;6.762;2023-11-18T05:42:25;2.70;81.00
20492;DHT22;10404;51.468;6.762;2023-11-18T05:44:51;2.70;81.00
20492;DHT22;10404;51.468;6.762;2023-11-18T05:47:24;2.70;81.00
20492;DHT22;10404;51.468;6.762;2023-11-18T05:49:51;2.70;81.00
20492;DHT22;10404;51.468;6.762;2023-11-18T05:52:17;2.70;80.90
20492;DHT22;10404;51.468;6.762;2023-11-18T05:54:42;2.70;80.90
20492;DHT22;10404;51.468;6.762;2023-11-18T05:57:08;2.70;80.90
20492;DHT22;10404;51.468;6.762;2023-11-18T05:59:34;2.70;81.00
20492;DHT22;10404;51.468;6.762;2023-11-18T06:02:00;2.70;80.90
20492;DHT22;10404;51.468;6.762;2023-11-18T06:04:29;2.70;81.00
20492;DHT22;10404;51.468;6.762;2023-11-18T06:06:56;2.70;81.00
20492;DHT22;10404;51.468;6.762;2023-11-18T06:09:22;2.70;80.90
20492;DHT22;10404;51.468;6.762;2023-11-18T06:11:51;2.70;81.00
20492;DHT22;10404;51.468;6.762;2023-11-18T06:14:17;2.70;81.00
20492;DHT22;10404;51.468;6.762;2023-11-18T06:16:42;2.70;81.00
20492;DHT22;10404;51.468;6.762;2023-11-18T06:19:08;2.70;81.10
20492;DHT22;10404;51.468;6.762;2023-11-18T06:21:35;2.70;81.10
20492;DHT22;10404;51.468;6.762;2023-11-18T06:24:02;2.70;81.00
20492;DHT22;10404;51.468;6.762;2023-11-18T06:26:31;2.70;81.00
20492;DHT22;10404;51.468;6.762;2023-11-18T06:28:57;2.70;81.10
20492;DHT22;10404;51.468;6.762;2023-11-18T06:31:24;2.80;81.00
20492;DHT22;10404;51.468;6.762;2023-11-18T06:33:50;2.70;81.20
20492;DHT22;10404;51.468;6.762;2023-11-18T06:36:17;2.70;81.20
20492;DHT22;10404;51.468;6.762;2023-11-18T06:38:43;2.70;81.30
20492;DHT22;10404;51.468;6.762;2023-11-18T06:41:12;2.70;81.30
20492;DHT22;10404;51.468;6.762;2023-11-18T06:43:43;2.70;81.40
20492;DHT22;10404;51.468;6.762;2023-11-18T06:46:35;2.70;81.40
20492;DHT22;10404;51.468;6.762;2023-11-18T06:49:03;2.70;81.40
20492;DHT22;10404;51.468;6.762;2023-11-18T06:51:34;2.70;81.50
20492;DHT22;10404;51.468;6.762;2023-11-18T06:54:01;2.70;81.50
20492;DHT22;10404;51.468;6.762;2023-11-18T06:56:34;2.70;81.50
20492;DHT22;10404;51.468;6.762;2023-11-18T06:59:01;2.70;81.50
20492;DHT22;10404;51.468;6.762;2023-11-18T07:01:27;2.70;81.60
20492;DHT22;10404;51.468;6.762;2023-11-18T07:03:55;2.70;81.70
20492;DHT22;10404;51.468;6.762;2023-11-18T07:06:21;2.70;81.70
20492;DHT22;10404;51.468;6.762;2023-11-18T07:08:52;2.70;81.70
20492;DHT22;10404;51.468;6.762;2023-11-18T07:11:18;2.70;81.60
20492;DHT22;10404;51.468;6.762;2023-11-18T07:13:51;2.80;81.70
20492;DHT22;10404;51.468;6.762;2023-11-18T07:16:23;2.70;81.70
20492;DHT22;10404;51.468;6.762;2023-11-18T07:18:48;2.70;81.70
20492;DHT22;10404;51.468;6.762;2023-11-18T07:21:14;2.80;81.60
20492;DHT22;10404;51.468;6.762;2023-11-18T07:23:39;2.80;81.60
20492;DHT22;10404;51.468;6.762;2023-11-18T07:26:05;2.80;81.60
20492;DHT22;10404;51.468;6.762;2023-11-18T07:28:31;2.80;81.60
20492;DHT22;10404;51.468;6.762;2023-11-18T07:30:57;2.80;81.70
20492;DHT22;10404;51.468;6.762;2023-11-18T07:33:23;2.80;81.70
20492;DHT22;10404;51.468;6.762;2023-11-18T07:35:49;2.80;81.70
20492;DHT22;10404;51.468;6.762;2023-11-18T07:38:15;2.80;81.80
20492;DHT22;10404;51.468;6.762;2023-11-18T07:40:41;2.80;81.80
20492;DHT22;10404;51.468;6.762;2023-11-18T07:43:13;2.80;81.90
20492;DHT22;10404;51.468;6.762;2023-11-18T07:45:40;2.80;82.00
20492;DHT22;10404;51.468;6.762;2023-11-18T07:48:07;2.80;82.00
20492;DHT22;10404;51.468;6.762;2023-11-18T07:50:34;2.90;82.10
20492;DHT22;10404;51.468;6.762;2023-11-18T07:53:00;2.90;82.30
20492;DHT22;10404;51.468;6.762;2023-11-18T07:55:26;2.90;82.30
20492;DHT22;10404;51.468;6.762;2023-11-18T07:57:52;2.90;82.40
20492;DHT22;10404;51.468;6.762;2023-11-18T08:00:17;2.90;82.40
20492;DHT22;10404;51.468;6.762;2023-11-18T08:02:43;2.80;82.40
20492;DHT22;10404;51.468;6.762;2023-11-18T08:05:10;2.90;82.50
20492;DHT22;10404;51.468;6.762;2023-11-18T08:07:44;2.90;82.50
20492;DHT22;10404;51.468;6.762;2023-11-18T08:10:10;2.90;82.60
20492;DHT22;10404;51.468;6.762;2023-11-18T08:12:38;2.90;82.60
20492;DHT22;10404;51.468;6.762;2023-11-18T08:15:05;2.90;82.70
20492;DHT22;10404;51.468;6.762;2023-11-18T08:17:32;2.90;82.70
20492;DHT22;10404;51.468;6.762;2023-11-18T08:19:57;2.90;82.60
20492;DHT22;10404;51.468;6.762;2023-11-18T08:22:23;2.90;82.80
20492;DHT22;10404;51.468;6.762;2023-11-18T08:24:49;2.90;82.80
20492;DHT22;10404;51.468;6.762;2023-11-18T08:27:16;2.90;82.90
20492;DHT22;10404;51.468;6.762;2023-11-18T08:29:42;2.90;82.80
20492;DHT22;10404;51.468;6.762;2023-11-18T08:32:08;3.00;83.00
20492;DHT22;10404;51.468;6.762;2023-11-18T08:34:37;3.00;83.00
20492;DHT22;10404;51.468;6.762;2023-11-18T08:37:06;3.00;83.10
20492;DHT22;10404;51.468;6.762;2023-11-18T08:39:32;3.00;83.20
20492;DHT22;10404;51.468;6.762;2023-11-18T08:41:58;3.00;83.20
20492;DHT22;10404;51.468;6.762;2023-11-18T08:44:24;3.00;83.20
20492;DHT22;10404;51.468;6.762;2023-11-18T08:46:53;3.00;83.30
20492;DHT22;10404;51.468;6.762;2023-11-18T08:49:19;3.00;83.20
20492;DHT22;10404;51.468;6.762;2023-11-18T08:51:48;3.00;83.30
20492;DHT22;10404;51.468;6.762;2023-11-18T08:54:15;3.00;83.60
20492;DHT22;10404;51.468;6.762;2023-11-18T08:57:05;3.00;83.50
20492;DHT22;10404;51.468;6.762;2023-11-18T08:59:49;3.10;83.60
20492;DHT22;10404;51.468;6.762;2023-11-18T09:02:18;3.10;83.50
20492;DHT22;10404;51.468;6.762;2023-11-18T09:04:49;3.10;83.40
20492;DHT22;10404;51.468;6.762;2023-11-18T09:07:15;3.10;83.50
20492;DHT22;10404;51.468;6.762;2023-11-18T09:09:41;3.10;83.50
20492;DHT22;10404;51.468;6.762;2023-11-18T09:12:07;3.10;83.60
20492;DHT22;10404;51.468;6.762;2023-11-18T09:14:34;3.10;83.60
20492;DHT22;10404;51.468;6.762;2023-11-18T09:17:00;3.10;83.80
20492;DHT22;10404;51.468;6.762;2023-11-18T09:19:29;3.10;83.70
20492;DHT22;10404;51.468;6.762;2023-11-18T09:21:55;3.10;84.10
20492;DHT22;10404;51.468;6.762;2023-11-18T09:24:21;3.10;84.00
20492;DHT22;10404;51.468;6.762;2023-11-18T09:26:50;3.20;84.30
20492;DHT22;10404;51.468;6.762;2023-11-18T09:29:16;3.20;84.40
20492;DHT22;10404;51.468;6.762;2023-11-18T09:31:50;3.30;84.20
20492;DHT22;10404;51.468;6.762;2023-11-18T09:34:18;3.30;84.40
20492;DHT22;10404;51.468;6.762;2023-11-18T09:36:44;3.30;84.80
20492;DHT22;10404;51.468;6.762;2023-11-18T09:39:10;3.30;85.30
20492;DHT22;10404;51.468;6.762;2023-11-18T09:41:55;3.30;85.00
20492;DHT22;10404;51.468;6.762;2023-11-18T09:44:22;3.30;84.90
20492;DHT22;10404;51.468;6.762;2023-11-18T09:46:56;3.30;84.60
20492;DHT22;10404;51.468;6.762;2023-11-18T09:49:32;3.30;84.70
20492;DHT22;10404;51.468;6.762;2023-11-18T09:52:06;3.30;85.40
20492;DHT22;10404;51.468;6.762;2023-11-18T09:57:54;3.40;85.60
20492;DHT22;10404;51.468;6.762;2023-11-18T10:00:23;3.40;85.50
20492;DHT22;10404;51.468;6.762;2023-11-18T10:02:54;3.50;85.60
20492;DHT22;10404;51.468;6.762;2023-11-18T10:05:22;3.50;85.50
20492;DHT22;10404;51.468;6.762;2023-11-18T10:07:52;3.50;85.60
20492;DHT22;10404;51.468;6.762;2023-11-18T10:10:18;3.50;85.80
20492;DHT22;10404;51.468;6.762;2023-11-18T10:12:49;3.50;85.70
20492;DHT22;10404;51.468;6.762;2023-11-18T10:15:21;3.50;86.00
20492;DHT22;10404;51.468;6.762;2023-11-18T10:17:49;3.50;85.90
20492;DHT22;10404;51.468;6.762;2023-11-18T10:20:48;3.60;86.00
20492;DHT22;10404;51.468;6.762;2023-11-18T10:23:21;3.60;85.20
20492;DHT22;10404;51.468;6.762;2023-11-18T10:25:49;3.60;85.90
20492;DHT22;10404;51.468;6.762;2023-11-18T10:30:47;3.70;85.90
20492;DHT22;10404;51.468;6.762;2023-11-18T10:33:20;3.70;85.70
20492;DHT22;10404;51.468;6.762;2023-11-18T10:35:50;3.70;86.40
20492;DHT22;10404;51.468;6.762;2023-11-18T10:38:21;3.80;85.90
20492;DHT22;10404;51.468;6.762;2023-11-18T10:40:53;3.90;86.80
20492;DHT22;10404;51.468;6.762;2023-11-18T10:43:23;3.90;87.10
20492;DHT22;10404;51.468;6.762;2023-11-18T10:46:14;3.90;86.80
20492;DHT22;10404;51.468;6.762;2023-11-18T10:48:48;3.90;86.90
20492;DHT22;10404;51.468;6.762;2023-11-18T10:51:17;4.00;87.20
20492;DHT22;10404;51.468;6.762;2023-11-18T10:53:47;4.20;89.70
20492;DHT22;10404;51.468;6.762;2023-11-18T10:56:22;4.40;90.60
20492;DHT22;10404;51.468;6.762;2023-11-18T10:58:58;4.50;90.40
20492;DHT22;10404;51.468;6.762;2023-11-18T11:03:54;4.70;90.30
20492;DHT22;10404;51.468;6.762;2023-11-18T11:06:26;4.70;90.10
20492;DHT22;10404;51.468;6.762;2023-11-18T11:08:56;4.70;89.80
20492;DHT22;10404;51.468;6.762;2023-11-18T11:11:25;4.60;89.40
20492;DHT22;10404;51.468;6.762;2023-11-18T11:13:59;4.50;89.00
20492;DHT22;10404;51.468;6.762;2023-11-18T11:16:40;4.50;88.70
20492;DHT22;10404;51.468;6.762;2023-11-18T11:22:18;4.50;88.50
20492;DHT22;10404;51.468;6.762;2023-11-18T11:25:16;4.50;88.20
20492;DHT22;10404;51.468;6.762;2023-11-18T11:28:13;4.40;88.00
20492;DHT22;10404;51.468;6.762;2023-11-18T11:30:46;4.40;87.90
20492;DHT22;10404;51.468;6.762;2023-11-18T11:33:38;4.50;88.10
20492;DHT22;10404;51.468;6.762;2023-11-18T11:36:12;4.50;88.20
20492;DHT22;10404;51.468;6.762;2023-11-18T11:38:41;4.50;88.10
20492;DHT22;10404;51.468;6.762;2023-11-18T11:41:13;4.50;88.10
20492;DHT22;10404;51.468;6.762;2023-11-18T11:43:47;4.50;88.20
20492;DHT22;10404;51.468;6.762;2023-11-18T11:46:14;4.50;88.10
20492;DHT22;10404;51.468;6.762;2023-11-18T11:48:48;4.50;88.10
20492;DHT22;10404;51.468;6.762;2023-11-18T11:51:24;4.50;88.30
20492;DHT22;10404;51.468;6.762;2023-11-18T11:54:13;4.50;88.20
20492;DHT22;10404;51.468;6.762;2023-11-18T11:56:45;4.50;88.30
20492;DHT22;10404;51.468;6.762;2023-11-18T12:02:13;4.60;88.20
20492;DHT22;10404;51.468;6.762;2023-11-18T12:04:44;4.60;88.00
20492;DHT22;10404;51.468;6.762;2023-11-18T12:07:10;4.70;88.20
20492;DHT22;10404;51.468;6.762;2023-11-18T12:09:40;4.70;88.30
20492;DHT22;10404;51.468;6.762;2023-11-18T12:12:19;4.70;88.60
20492;DHT22;10404;51.468;6.762;2023-11-18T12:14:55;4.70;88.60
20492;DHT22;10404;51.468;6.762;2023-11-18T12:17:22;4.70;88.50
20492;DHT22;10404;51.468;6.762;2023-11-18T12:19:48;4.70;88.30
20492;DHT22;10404;51.468;6.762;2023-11-18T12:22:18;4.70;88.10
20492;DHT22;10404;51.468;6.762;2023-11-18T12:24:45;4.70;88.20
20492;DHT22;10404;51.468;6.762;2023-11-18T12:27:13;4.70;88.30
20492;DHT22;10404;51.468;6.762;2023-11-18T12:29:43;4.80;88.30
20492;DHT22;10404;51.468;6.762;2023-11-18T12:35:20;4.90;88.30
20492;DHT22;10404;51.468;6.762;2023-11-18T12:40:54;4.90;88.20
20492;DHT22;10404;51.468;6.762;2023-11-18T12:46:53;4.90;88.20
20492;DHT22;10404;51.468;6.762;2023-11-18T12:49:21;4.90;88.20
20492;DHT22;10404;51.468;6.762;2023-11-18T12:51:51;4.90;88.10
20492;DHT22;10404;51.468;6.762;2023-11-18T12:54:25;4.90;88.10
20492;DHT22;10404;51.468;6.762;2023-11-18T12:56:54;5.00;88.20
20492;DHT22;10404;51.468;6.762;2023-11-18T12:59:20;5.00;88.00
20492;DHT22;10404;51.468;6.762;2023-11-18T13:01:52;5.00;88.00
20492;DHT22;10404;51.468;6.762;2023-11-18T13:04:22;5.00;88.30
20492;DHT22;10404;51.468;6.762;2023-11-18T13:06:50;5.00;88.40
20492;DHT22;10404;51.468;6.762;2023-11-18T13:09:17;5.00;88.40
20492;DHT22;10404;51.468;6.762;2023-11-18T13:11:58;5.00;88.30
20492;DHT22;10404;51.468;6.762;2023-11-18T13:14:28;5.10;88.40
20492;DHT22;10404;51.468;6.762;2023-11-18T13:16:56;5.10;88.40
20492;DHT22;10404;51.468;6.762;2023-11-18T13:19:29;5.10;88.40
20492;DHT22;10404;51.468;6.762;2023-11-18T13:22:02;5.10;88.50
20492;DHT22;10404;51.468;6.762;2023-11-18T13:24:38;5.10;88.40
20492;DHT22;10404;51.468;6.762;2023-11-18T13:27:08;5.10;88.40
20492;DHT22;10404;51.468;6.762;2023-11-18T13:29:38;5.20;88.30
20492;DHT22;10404;51.468;6.762;2023-11-18T13:32:08;5.30;88.50
20492;DHT22;10404;51.468;6.762;2023-11-18T13:34:36;5.30;88.60
20492;DHT22;10404;51.468;6.762;2023-11-18T13:37:08;5.30;88.50
20492;DHT22;10404;51.468;6.762;2023-11-18T13:39:36;5.30;88.40
20492;DHT22;10404;51.468;6.762;2023-11-18T13:42:24;5.30;88.40
20492;DHT22;10404;51.468;6.762;2023-11-18T13:44:53;5.30;88.50
20492;DHT22;10404;51.468;6.762;2023-11-18T13:47:26;5.30;88.50
20492;DHT22;10404;51.468;6.762;2023-11-18T13:49:54;5.30;88.60
20492;DHT22;10404;51.468;6.762;2023-11-18T13:52:20;5.30;88.50
20492;DHT22;10404;51.468;6.762;2023-11-18T13:54:47;5.30;88.60
20492;DHT22;10404;51.468;6.762;2023-11-18T13:57:13;5.30;88.40
20492;DHT22;10404;51.468;6.762;2023-11-18T13:59:39;5.30;88.30
20492;DHT22;10404;51.468;6.762;2023-11-18T14:02:05;5.30;88.50
20492;DHT22;10404;51.468;6.762;2023-11-18T14:04:33;5.40;88.70
20492;DHT22;10404;51.468;6.762;2023-11-18T14:07:03;5.40;88.60
20492;DHT22;10404;51.468;6.762;2023-11-18T14:09:35;5.40;88.50
20492;DHT22;10404;51.468;6.762;2023-11-18T14:12:10;5.50;88.70
20492;DHT22;10404;51.468;6.762;2023-11-18T14:14:36;5.50;88.70
20492;DHT22;10404;51.468;6.762;2023-11-18T14:17:03;5.50;88.70
20492;DHT22;10404;51.468;6.762;2023-11-18T14:19:31;5.50;88.50
20492;DHT22;10404;51.468;6.762;2023-11-18T14:21:57;5.50;88.50
20492;DHT22;10404;51.468;6.762;2023-11-18T14:24:23;5.50;88.40
20492;DHT22;10404;51.468;6.762;2023-11-18T14:26:49;5.50;88.50
20492;DHT22;10404;51.468;6.762;2023-11-18T14:29:16;5.50;88.60
20492;DHT22;10404;51.468;6.762;2023-11-18T14:31:41;5.50;88.50
20492;DHT22;10404;51.468;6.762;2023-11-18T14:34:07;5.50;88.40
20492;DHT22;10404;51.468;6.762;2023-11-18T14:36:36;5.50;88.30
20492;DHT22;10404;51.468;6.762;2023-11-18T14:39:02;5.50;88.50
20492;DHT22;10404;51.468;6.762;2023-11-18T14:41:28;5.60;88.70
20492;DHT22;10404;51.468;6.762;2023-11-18T14:43:59;5.70;90.10
20492;DHT22;10404;51.468;6.762;2023-11-18T14:46:26;5.90;90.50
20492;DHT22;10404;51.468;6.762;2023-11-18T14:48:52;6.00;91.00
20492;DHT22;10404;51.468;6.762;2023-11-18T14:51:18;6.00;91.10
20492;DHT22;10404;51.468;6.762;2023-11-18T14:53:43;6.00;91.20
20492;DHT22;10404;51.468;6.762;2023-11-18T14:56:10;6.00;91.00
20492;DHT22;10404;51.468;6.762;2023-11-18T14:58:35;6.00;90.70
20492;DHT22;10404;51.468;6.762;2023-11-18T15:01:01;5.90;90.40
20492;DHT22;10404;51.468;6.762;2023-11-18T15:03:27;5.90;90.20
20492;DHT22;10404;51.468;6.762;2023-11-18T15:05:53;5.90;90.10
20492;DHT22;10404;51.468;6.762;2023-11-18T15:08:19;5.80;90.00
20492;DHT22;10404;51.468;6.762;2023-11-18T15:10:45;5.80;89.90
20492;DHT22;10404;51.468;6.762;2023-11-18T15:13:11;5.80;89.80
20492;DHT22;10404;51.468;6.762;2023-11-18T15:15:46;5.80;90.00
20492;DHT22;10404;51.468;6.762;2023-11-18T15:18:15;6.00;90.90
20492;DHT22;10404;51.468;6.762;2023-11-18T15:20:43;6.00;91.00
20492;DHT22;10404;51.468;6.762;2023-11-18T15:23:10;6.00;90.80
20492;DHT22;10404;51.468;6.762;2023-11-18T15:25:36;6.00;90.70
20492;DHT22;10404;51.468;6.762;2023-11-18T15:28:02;5.90;90.30
20492;DHT22;10404;51.468;6.762;2023-11-18T15:30:29;5.90;90.10
20492;DHT22;10404;51.468;6.762;2023-11-18T15:32:55;5.90;90.00
20492;DHT22;10404;51.468;6.762;2023-11-18T15:35:22;5.90;89.90
20492;DHT22;10404;51.468;6.762;2023-11-18T15:37:48;5.80;89.80
20492;DHT22;10404;51.468;6.762;2023-11-18T15:40:15;5.80;89.70
20492;DHT22;10404;51.468;6.762;2023-11-18T15:42:45;5.80;89.70
20492;DHT22;10404;51.468;6.762;2023-11-18T15:45:23;5.80;89.70
20492;DHT22;10404;51.468;6.762;2023-11-18T15:47:50;5.80;89.70
20492;DHT22;10404;51.468;6.762;2023-11-18T15:50:16;5.80;89.70
20492;DHT22;10404;51.468;6.762;2023-11-18T15:52:45;5.80;89.90
20492;DHT22;10404;51.468;6.762;2023-11-18T15:55:11;6.00;91.40
20492;DHT22;10404;51.468;6.762;2023-11-18T15:57:43;6.00;91.70
20492;DHT22;10404;51.468;6.762;2023-11-18T16:00:10;6.10;91.80
20492;DHT22;10404;51.468;6.762;2023-11-18T16:02:46;6.10;91.80
20492;DHT22;10404;51.468;6.762;2023-11-18T16:05:13;6.00;91.50
20492;DHT22;10404;51.468;6.762;2023-11-18T16:07:42;6.00;91.20
20492;DHT22;10404;51.468;6.762;2023-11-18T16:10:08;6.00;91.00
20492;DHT22;10404;51.468;6.762;2023-11-18T16:12:34;6.10;91.50
20492;DHT22;10404;51.468;6.762;2023-11-18T16:15:00;6.10;92.00
20492;DHT22;10404;51.468;6.762;2023-11-18T16:17:25;6.10;92.10
20492;DHT22;10404;51.468;6.762;2023-11-18T16:19:52;6.10;91.90
20492;DHT22;10404;51.468;6.762;2023-11-18T16:22:17;6.10;91.70